LPPT METAR

LPPT METAR

@METAR_LPPT

Followers123
Following227

METAR reports for LPPT/LIS - Lisbon Airport (Portugal) every 30 minutes. At XX:15 and XX:45. @MarioGaudencio 📞

Lisbon, Portugal
Joined on February 01, 2017
Statistics

We looked inside some of the tweets by @METAR_LPPT and here's what we found interesting.

Inside 100 Tweets

Time between tweets:
29 minutes
Average replies
0
Average retweets
1
Average likes
0
Tweets with photos
0 / 100
Tweets with videos
0 / 100
Tweets with links
0 / 100

LPPT 180830Z 36006KT 320V060 9999 FEW020 11/09 Q1018 #aviation #airplanes #metar #weather #avgeek #aviationlovers

LPPT 180800Z 33009KT 9999 FEW020 11/09 Q1018 #aviation #airplanes #metar #weather #avgeek #aviationlovers

LPPT 180730Z 31010KT 9999 FEW020 11/08 Q1017 #aviation #airplanes #metar #weather #avgeek #aviationlovers

LPPT 180700Z 31011KT 9999 FEW022 11/09 Q1017 #aviation #airplanes #metar #weather #avgeek #aviationlovers

LPPT 180630Z 32007KT 9999 FEW022 11/08 Q1017 #aviation #airplanes #metar #weather #avgeek #aviationlovers

LPPT 180600Z VRB02KT 9999 FEW022 08/08 Q1017 #aviation #airplanes #metar #weather #avgeek #aviationlovers

LPPT 180530Z VRB02KT 9999 FEW022 09/08 Q1017 #aviation #airplanes #metar #weather #avgeek #aviationlovers

LPPT 180500Z VRB02KT 9999 FEW025 09/07 Q1017 #aviation #airplanes #metar #weather #avgeek #aviationlovers

LPPT 180430Z 35004KT 300V030 9999 FEW022 10/08 Q1017 #aviation #airplanes #metar #weather #avgeek #aviationlovers

LPPT 180400Z 34005KT 9999 FEW030 10/08 Q1017 #aviation #airplanes #metar #weather #avgeek #aviationlovers

LPPT 180330Z 33006KT 9999 FEW030 10/08 Q1017 #aviation #airplanes #metar #weather #avgeek #aviationlovers

LPPT 180300Z 33006KT R03/P2000 FEW030 10/08 Q1017 #aviation #airplanes #metar #weather #avgeek #aviationlovers

LPPT 180230Z 32004KT 290V350 9999 FEW030 11/08 Q1017 #aviation #airplanes #metar #weather #avgeek #aviationlovers

LPPT 180200Z 32005KT 9999 FEW030 11/08 Q1016 #aviation #airplanes #metar #weather #avgeek #aviationlovers

LPPT 180130Z 32005KT 9999 FEW030 11/08 Q1017 #aviation #airplanes #metar #weather #avgeek #aviationlovers

LPPT 180100Z 30005KT 9999 FEW030 11/08 Q1017 #aviation #airplanes #metar #weather #avgeek #aviationlovers

LPPT 180030Z 30004KT 9999 FEW030 11/09 Q1017 #aviation #airplanes #metar #weather #avgeek #aviationlovers

LPPT 180000Z 30004KT 9999 FEW030 11/09 Q1017 #aviation #airplanes #metar #weather #avgeek #aviationlovers

LPPT 172330Z 32005KT 9999 FEW030 11/09 Q1017 #aviation #airplanes #metar #weather #avgeek #aviationlovers

LPPT 172300Z 33007KT 9999 FEW040 11/09 Q1017 #aviation #airplanes #metar #weather #avgeek #aviationlovers

Next Page